createdAt,value
2017-04-29T00:00:09.876Z,78.50
2017-04-29T00:02:39.032Z,79.20
2017-04-29T00:05:08.630Z,79.60
2017-04-29T00:07:38.545Z,81.20
2017-04-29T00:10:07.731Z,80.60
2017-04-29T00:12:36.924Z,80.90
2017-04-29T00:15:06.089Z,81.30
2017-04-29T00:17:35.266Z,82.20
2017-04-29T00:20:04.460Z,83.10
2017-04-29T00:22:33.280Z,83.80
2017-04-29T00:25:02.676Z,84.20
2017-04-29T00:27:31.530Z,84.90
2017-04-29T00:30:01.428Z,84.30
2017-04-29T00:32:30.618Z,84.70
2017-04-29T00:34:59.818Z,84.30
2017-04-29T00:37:28.988Z,84.40
2017-04-29T00:39:58.168Z,84.50
2017-04-29T00:42:27.030Z,84.90
2017-04-29T00:44:56.938Z,85.70
2017-04-29T00:47:25.698Z,85.10
2017-04-29T00:49:54.557Z,85.30
2017-04-29T00:52:23.385Z,85.50
2017-04-29T00:54:52.553Z,84.90
2017-04-29T00:57:21.769Z,85.40
2017-04-29T00:59:50.984Z,86.20
2017-04-29T01:02:20.157Z,86.50
2017-04-29T01:04:49.361Z,86.80
2017-04-29T01:07:18.533Z,86.50
2017-04-29T01:09:47.694Z,86.40
2017-04-29T01:12:16.550Z,86.60
2017-04-29T01:14:45.717Z,87.00
2017-04-29T01:17:14.893Z,87.40
2017-04-29T01:19:44.813Z,87.90
2017-04-29T01:22:14.717Z,88.00
2017-04-29T01:24:43.892Z,88.20
2017-04-29T01:27:13.089Z,88.00
2017-04-29T01:29:42.492Z,88.80
2017-04-29T01:32:11.666Z,88.60
2017-04-29T01:34:40.857Z,88.50
2017-04-29T01:37:10.017Z,89.50
2017-04-29T01:39:39.189Z,89.60
2017-04-29T01:42:08.389Z,90.00
2017-04-29T01:44:37.553Z,90.20
2017-04-29T01:47:06.717Z,90.30
2017-04-29T01:49:36.646Z,90.30
2017-04-29T01:52:05.118Z,90.50
2017-04-29T01:54:35.025Z,90.30
2017-04-29T01:57:04.982Z,90.60
2017-04-29T01:59:34.149Z,90.80
2017-04-29T02:02:04.065Z,90.90
2017-04-29T02:04:33.661Z,90.60
2017-04-29T02:07:02.829Z,91.30
2017-04-29T02:09:31.997Z,91.10
2017-04-29T02:12:00.845Z,91.10
2017-04-29T02:14:30.390Z,91.60
2017-04-29T02:16:59.226Z,91.60
2017-04-29T02:19:28.416Z,91.50
2017-04-29T02:21:57.688Z,91.50
2017-04-29T02:24:26.866Z,91.60
2017-04-29T02:26:56.065Z,91.80
2017-04-29T02:29:25.290Z,92.20
2017-04-29T02:31:55.897Z,91.50
2017-04-29T02:34:25.096Z,91.70
2017-04-29T02:36:54.283Z,91.60
2017-04-29T02:39:23.470Z,91.80
2017-04-29T02:41:52.330Z,91.60
2017-04-29T02:44:21.518Z,91.70
2017-04-29T02:46:50.685Z,91.70
2017-04-29T02:49:19.528Z,91.70
2017-04-29T02:51:48.346Z,91.60
2017-04-29T02:54:18.258Z,91.70
2017-04-29T02:56:47.465Z,91.80
2017-04-29T02:59:17.374Z,91.80
2017-04-29T03:01:46.600Z,91.70
2017-04-29T03:04:15.800Z,91.60
2017-04-29T03:06:44.978Z,91.40
2017-04-29T03:09:14.203Z,91.30
2017-04-29T03:11:43.417Z,91.00
2017-04-29T03:14:12.586Z,90.80
2017-04-29T03:16:42.506Z,91.10
2017-04-29T03:19:12.493Z,91.30
2017-04-29T03:21:41.656Z,91.70
2017-04-29T03:24:10.817Z,91.10
2017-04-29T03:26:40.766Z,91.00
2017-04-29T03:29:09.934Z,91.40
2017-04-29T03:31:39.105Z,91.30
2017-04-29T03:34:08.297Z,91.50
2017-04-29T03:36:37.466Z,91.10
2017-04-29T03:39:06.628Z,91.30
2017-04-29T03:41:35.828Z,91.20
2017-04-29T03:44:04.989Z,91.30
2017-04-29T03:46:34.164Z,91.10
2017-04-29T03:49:03.390Z,91.10
2017-04-29T03:51:32.556Z,91.20
2017-04-29T03:54:01.378Z,91.30
2017-04-29T03:56:30.578Z,91.00
2017-04-29T03:58:59.746Z,91.20
2017-04-29T04:01:28.906Z,91.00
2017-04-29T04:03:58.902Z,90.80
2017-04-29T04:06:28.085Z,91.10
2017-04-29T04:08:57.250Z,90.90
2017-04-29T04:11:27.868Z,91.10
2017-04-29T04:13:57.045Z,91.10
2017-04-29T04:16:26.969Z,91.20
2017-04-29T04:18:56.161Z,91.10
2017-04-29T04:21:26.140Z,91.10
2017-04-29T04:23:55.314Z,91.00
2017-04-29T04:26:24.512Z,90.90
2017-04-29T04:28:53.681Z,90.80
2017-04-29T04:31:23.596Z,90.80
2017-04-29T04:33:52.986Z,90.60
2017-04-29T04:36:22.888Z,90.50
2017-04-29T04:38:52.080Z,90.20
2017-04-29T04:41:21.244Z,90.00
2017-04-29T04:43:50.409Z,90.10
2017-04-29T04:46:18.913Z,90.10
2017-04-29T04:48:48.072Z,90.10
2017-04-29T04:51:17.232Z,90.20
2017-04-29T04:53:46.757Z,90.30
2017-04-29T04:56:15.581Z,87.90
2017-04-29T04:58:45.496Z,82.50
2017-04-29T05:01:15.437Z,79.50
2017-04-29T05:03:44.605Z,78.50
2017-04-29T05:06:14.519Z,76.20
2017-04-29T05:08:44.454Z,72.80
2017-04-29T05:11:13.618Z,72.40
2017-04-29T05:13:42.787Z,69.20
2017-04-29T05:16:12.086Z,68.30
2017-04-29T05:18:41.254Z,66.90
2017-04-29T05:21:10.418Z,67.60
2017-04-29T05:23:39.604Z,67.60
2017-04-29T05:26:08.421Z,65.20
2017-04-29T05:28:38.320Z,64.70
2017-04-29T05:31:07.512Z,65.30
2017-04-29T05:33:36.668Z,71.50
2017-04-29T05:36:05.550Z,71.60
2017-04-29T05:38:34.746Z,71.80
2017-04-29T05:41:04.193Z,73.60
2017-04-29T05:43:33.363Z,74.50
2017-04-29T05:46:02.565Z,69.70
2017-04-29T05:48:31.725Z,67.10
2017-04-29T05:51:01.660Z,64.40
2017-04-29T05:53:30.857Z,62.50
2017-04-29T05:56:00.857Z,65.40
2017-04-29T05:58:30.462Z,64.10
2017-04-29T06:01:00.397Z,62.20
2017-04-29T06:03:29.569Z,59.10
2017-04-29T06:05:58.754Z,56.10
2017-04-29T06:08:27.948Z,57.20
2017-04-29T06:10:57.125Z,57.70
2017-04-29T06:13:26.289Z,58.20
2017-04-29T06:15:56.221Z,59.40
2017-04-29T06:18:25.381Z,61.40
2017-04-29T06:20:54.553Z,56.30
2017-04-29T06:23:23.748Z,57.90
2017-04-29T06:25:52.601Z,57.30
2017-04-29T06:28:21.764Z,55.90
2017-04-29T06:30:51.450Z,53.90
2017-04-29T06:33:20.621Z,50.40
2017-04-29T06:35:49.445Z,48.90
2017-04-29T06:38:18.641Z,50.20
2017-04-29T06:40:47.470Z,50.10
2017-04-29T06:43:17.033Z,50.60
2017-04-29T06:45:46.229Z,48.50
2017-04-29T06:48:15.397Z,45.40
2017-04-29T06:50:45.756Z,46.20
2017-04-29T06:53:15.260Z,43.70
2017-04-29T06:55:44.421Z,44.90
2017-04-29T06:58:12.889Z,46.90
2017-04-29T07:00:42.833Z,48.80
2017-04-29T07:03:11.992Z,50.00
2017-04-29T07:05:41.917Z,48.60
2017-04-29T07:08:11.513Z,46.70
2017-04-29T07:10:40.680Z,47.90
2017-04-29T07:13:09.500Z,48.90
2017-04-29T07:15:38.700Z,47.90
2017-04-29T07:18:07.870Z,48.00
2017-04-29T07:20:37.033Z,46.30
2017-04-29T07:23:05.876Z,43.50
2017-04-29T07:25:35.046Z,44.70
2017-04-29T07:28:04.212Z,44.20
2017-04-29T07:30:33.085Z,43.10
2017-04-29T07:33:02.994Z,45.20
2017-04-29T07:35:32.934Z,40.40
2017-04-29T07:38:02.101Z,40.90
2017-04-29T07:40:31.264Z,40.50
2017-04-29T07:43:00.460Z,41.00
2017-04-29T07:45:29.633Z,42.50
2017-04-29T07:47:58.807Z,42.50
2017-04-29T07:50:28.553Z,43.70
2017-04-29T07:52:57.382Z,41.30
2017-04-29T07:55:26.554Z,40.80
2017-04-29T07:57:55.754Z,40.80
2017-04-29T08:00:24.245Z,43.60
2017-04-29T08:02:53.438Z,45.10
2017-04-29T08:05:22.284Z,42.20
2017-04-29T08:07:52.185Z,41.90
2017-04-29T08:10:21.356Z,43.70
2017-04-29T08:12:50.549Z,39.20
2017-04-29T08:15:19.717Z,37.90
2017-04-29T08:17:48.879Z,40.60
2017-04-29T08:20:18.077Z,41.60
2017-04-29T08:22:47.984Z,37.60
2017-04-29T08:25:17.169Z,33.90
2017-04-29T08:27:46.365Z,32.30
2017-04-29T08:30:15.181Z,30.50
2017-04-29T08:32:44.344Z,34.40
2017-04-29T08:35:13.545Z,37.40
2017-04-29T08:37:42.721Z,34.40
2017-04-29T08:40:11.550Z,30.50
2017-04-29T08:42:40.749Z,32.40
2017-04-29T08:45:09.565Z,33.40
2017-04-29T08:47:39.473Z,31.10
2017-04-29T08:50:07.961Z,30.90
2017-04-29T08:52:37.526Z,32.20
2017-04-29T08:55:06.349Z,29.10
2017-04-29T08:57:35.528Z,29.70
2017-04-29T09:00:04.692Z,29.50
2017-04-29T09:02:33.853Z,32.40
2017-04-29T09:05:04.445Z,33.50
2017-04-29T09:07:33.268Z,38.30
2017-04-29T09:10:02.438Z,37.70
2017-04-29T09:12:31.625Z,36.90
2017-04-29T09:15:03.243Z,37.50
2017-04-29T09:17:32.450Z,37.00
2017-04-29T09:20:01.627Z,35.20
2017-04-29T09:22:31.550Z,31.50
2017-04-29T09:25:01.481Z,28.40
2017-04-29T09:27:30.645Z,29.60
2017-04-29T09:29:59.806Z,31.00
2017-04-29T09:32:28.996Z,33.80
2017-04-29T09:34:58.252Z,36.00
2017-04-29T09:37:28.193Z,35.10
2017-04-29T09:39:57.394Z,37.30
2017-04-29T09:42:26.597Z,38.00
2017-04-29T09:44:55.778Z,34.20
2017-04-29T09:47:25.365Z,31.40
2017-04-29T09:49:54.551Z,34.10
2017-04-29T09:52:24.081Z,35.10
2017-04-29T09:54:54.049Z,34.70
2017-04-29T09:57:23.310Z,35.40
2017-04-29T09:59:53.224Z,36.20
2017-04-29T10:02:27.259Z,36.70
2017-04-29T10:04:56.577Z,37.60
2017-04-29T10:07:26.620Z,36.80
2017-04-29T10:09:55.795Z,33.60
2017-04-29T10:12:24.614Z,33.70
2017-04-29T10:14:53.813Z,31.90
2017-04-29T10:17:22.989Z,32.20
2017-04-29T10:19:52.191Z,32.50
2017-04-29T10:22:21.399Z,33.40
2017-04-29T10:24:50.561Z,34.80
2017-04-29T10:27:20.807Z,34.40
2017-04-29T10:29:50.038Z,34.10
2017-04-29T10:32:19.204Z,33.10
2017-04-29T10:34:48.414Z,30.80
2017-04-29T10:37:17.640Z,31.10
2017-04-29T10:39:46.800Z,32.50
2017-04-29T10:42:15.980Z,28.80
2017-04-29T10:44:45.141Z,27.30
2017-04-29T10:47:15.052Z,29.60
2017-04-29T10:49:44.248Z,31.30
2017-04-29T10:52:13.418Z,30.90
2017-04-29T10:54:42.580Z,30.50
2017-04-29T10:57:11.829Z,32.00
2017-04-29T10:59:40.997Z,31.30
2017-04-29T11:02:10.156Z,31.50
2017-04-29T11:04:40.310Z,29.90
2017-04-29T11:07:09.468Z,30.70
2017-04-29T11:09:39.389Z,32.80
2017-04-29T11:12:09.569Z,31.50
2017-04-29T11:14:38.741Z,31.70
2017-04-29T11:17:07.904Z,31.40
2017-04-29T11:19:37.841Z,30.00
2017-04-29T11:22:07.008Z,30.00
2017-04-29T11:24:36.168Z,31.00
2017-04-29T11:27:05.370Z,31.00
2017-04-29T11:29:34.537Z,32.10
2017-04-29T11:32:03.370Z,32.80
2017-04-29T11:34:32.561Z,33.20
2017-04-29T11:37:01.724Z,33.60
2017-04-29T11:39:30.880Z,34.80
2017-04-29T11:42:00.078Z,33.70
2017-04-29T11:44:29.251Z,33.60
2017-04-29T11:46:58.412Z,34.10
2017-04-29T11:49:27.608Z,30.40
2017-04-29T11:51:57.513Z,31.50
2017-04-29T11:54:27.456Z,29.80
2017-04-29T11:56:56.617Z,30.30
2017-04-29T11:59:25.785Z,30.30
2017-04-29T12:01:54.974Z,33.10
2017-04-29T12:04:24.136Z,34.10
2017-04-29T12:06:53.302Z,35.40
2017-04-29T12:09:22.526Z,35.80
2017-04-29T12:11:51.697Z,37.40
2017-04-29T12:14:20.861Z,38.00
2017-04-29T12:16:50.053Z,35.30
2017-04-29T12:19:19.218Z,33.80
2017-04-29T12:21:49.132Z,33.90
2017-04-29T12:24:19.065Z,33.50
2017-04-29T12:26:48.229Z,32.90
2017-04-29T12:29:17.389Z,33.90
2017-04-29T12:31:46.584Z,32.40
2017-04-29T12:34:15.760Z,32.30
2017-04-29T12:36:44.924Z,32.40
2017-04-29T12:39:14.109Z,33.40
2017-04-29T12:41:43.268Z,33.10
2017-04-29T12:44:12.134Z,34.50
2017-04-29T12:46:41.336Z,33.00
2017-04-29T12:49:11.273Z,33.30
2017-04-29T12:51:40.463Z,33.50
2017-04-29T12:54:09.656Z,33.90
2017-04-29T12:56:38.825Z,33.10
2017-04-29T12:59:07.984Z,33.70
2017-04-29T13:01:37.177Z,32.80
2017-04-29T13:04:06.358Z,34.30
2017-04-29T13:06:35.525Z,33.50
2017-04-29T13:09:04.789Z,32.50
2017-04-29T13:11:33.608Z,31.50
2017-04-29T13:14:02.782Z,30.60
2017-04-29T13:16:31.993Z,30.40
2017-04-29T13:19:01.163Z,31.30
2017-04-29T13:21:30.325Z,32.00
2017-04-29T13:24:00.308Z,32.70
2017-04-29T13:26:29.130Z,32.50
2017-04-29T13:28:59.041Z,32.50
2017-04-29T13:31:28.977Z,33.70
2017-04-29T13:33:58.137Z,33.90
2017-04-29T13:36:27.309Z,33.10
2017-04-29T13:38:56.501Z,35.20
2017-04-29T13:41:25.664Z,36.60
2017-04-29T13:43:54.486Z,34.90
2017-04-29T13:46:23.709Z,34.20
2017-04-29T13:48:52.882Z,33.50
2017-04-29T13:51:22.047Z,32.20
2017-04-29T13:53:51.245Z,33.70
2017-04-29T13:56:20.408Z,33.80
2017-04-29T13:58:49.568Z,30.90
2017-04-29T14:01:18.762Z,30.90
2017-04-29T14:03:47.926Z,30.80
2017-04-29T14:06:17.857Z,29.70
2017-04-29T14:08:47.026Z,30.70
2017-04-29T14:11:16.194Z,30.20
2017-04-29T14:13:45.385Z,29.30
2017-04-29T14:16:14.558Z,29.70
2017-04-29T14:18:43.726Z,30.20
2017-04-29T14:21:12.925Z,28.80
2017-04-29T14:23:42.841Z,30.00
2017-04-29T14:26:12.011Z,31.00
2017-04-29T14:28:41.205Z,31.00
2017-04-29T14:31:10.373Z,31.00
2017-04-29T14:33:39.193Z,30.30
2017-04-29T14:36:08.394Z,31.10
2017-04-29T14:38:37.555Z,31.90
2017-04-29T14:41:06.716Z,29.70
2017-04-29T14:43:35.937Z,30.20
2017-04-29T14:46:05.850Z,31.10
2017-04-29T14:48:35.760Z,31.80
2017-04-29T14:51:05.352Z,31.60
2017-04-29T14:53:34.522Z,30.80
2017-04-29T14:56:03.345Z,31.40
2017-04-29T14:58:32.540Z,30.90
2017-04-29T15:01:01.703Z,32.10
2017-04-29T15:03:30.860Z,32.20
2017-04-29T15:06:00.789Z,31.80
2017-04-29T15:08:29.949Z,32.30
2017-04-29T15:10:59.109Z,32.30
2017-04-29T15:13:28.300Z,33.00
2017-04-29T15:15:57.464Z,32.00
2017-04-29T15:18:27.386Z,29.40
2017-04-29T15:20:57.325Z,28.80
2017-04-29T15:23:26.494Z,28.90
2017-04-29T15:25:56.408Z,29.20
2017-04-29T15:28:26.345Z,28.50
2017-04-29T15:30:55.519Z,30.40
2017-04-29T15:33:25.397Z,30.40
2017-04-29T15:35:54.585Z,30.90
2017-04-29T15:38:23.754Z,29.50
2017-04-29T15:40:52.954Z,29.40
2017-04-29T15:43:22.415Z,29.00
2017-04-29T15:45:51.576Z,28.90
2017-04-29T15:48:20.781Z,29.40
2017-04-29T15:50:49.937Z,30.50
2017-04-29T15:53:19.874Z,31.40
2017-04-29T15:55:49.045Z,32.20
2017-04-29T15:58:18.962Z,31.70
2017-04-29T16:00:48.896Z,33.20
2017-04-29T16:03:18.071Z,33.70
2017-04-29T16:05:47.539Z,32.40
2017-04-29T16:08:16.747Z,31.90
2017-04-29T16:10:45.908Z,32.40
2017-04-29T16:13:15.074Z,31.90
2017-04-29T16:15:45.005Z,32.50
2017-04-29T16:18:14.904Z,31.50
2017-04-29T16:20:44.076Z,31.50
2017-04-29T16:23:13.272Z,30.40
2017-04-29T16:25:42.445Z,31.00
2017-04-29T16:28:11.617Z,30.80
2017-04-29T16:30:41.552Z,30.40
2017-04-29T16:33:10.714Z,30.40
2017-04-29T16:35:40.648Z,31.30
2017-04-29T16:38:09.842Z,32.50
2017-04-29T16:40:39.745Z,32.10
2017-04-29T16:43:09.684Z,33.70
2017-04-29T16:45:38.860Z,32.60
2017-04-29T16:48:08.765Z,33.50
2017-04-29T16:50:37.956Z,33.90
2017-04-29T16:53:07.128Z,33.10
2017-04-29T16:55:36.288Z,33.20
2017-04-29T16:58:05.132Z,33.00
2017-04-29T17:00:34.292Z,34.40
2017-04-29T17:03:03.452Z,34.20
2017-04-29T17:05:32.649Z,32.40
2017-04-29T17:08:01.810Z,33.90
2017-04-29T17:10:30.968Z,33.30
2017-04-29T17:13:00.565Z,33.00
2017-04-29T17:15:30.468Z,32.10
2017-04-29T17:17:59.658Z,32.50
2017-04-29T17:20:28.849Z,33.20
2017-04-29T17:22:58.008Z,33.00
2017-04-29T17:25:27.164Z,33.20
2017-04-29T17:27:56.358Z,32.30
2017-04-29T17:30:25.531Z,32.90
2017-04-29T17:32:54.701Z,33.20
2017-04-29T17:35:23.908Z,34.10
2017-04-29T17:37:53.069Z,34.30
2017-04-29T17:40:22.988Z,34.10
2017-04-29T17:42:52.929Z,34.10
2017-04-29T17:45:22.098Z,34.70
2017-04-29T17:47:52.025Z,34.10
2017-04-29T17:50:21.230Z,34.90
2017-04-29T17:52:50.403Z,35.80
2017-04-29T17:55:20.324Z,35.50
2017-04-29T17:57:50.509Z,35.10
2017-04-29T18:00:19.672Z,34.90
2017-04-29T18:02:48.833Z,35.60
2017-04-29T18:05:17.681Z,36.00
2017-04-29T18:07:46.845Z,36.20
2017-04-29T18:10:16.009Z,36.60
2017-04-29T18:12:45.205Z,35.60
2017-04-29T18:15:14.373Z,36.10
2017-04-29T18:17:43.191Z,36.40
2017-04-29T18:20:12.389Z,36.30
2017-04-29T18:22:41.208Z,36.50
2017-04-29T18:25:10.772Z,36.80
2017-04-29T18:27:39.987Z,38.10
2017-04-29T18:30:10.385Z,39.20
2017-04-29T18:32:39.568Z,38.70
2017-04-29T18:35:08.766Z,40.60
2017-04-29T18:37:37.276Z,42.70
2017-04-29T18:40:06.455Z,40.30
2017-04-29T18:42:35.650Z,43.90
2017-04-29T18:45:04.476Z,43.10
2017-04-29T18:47:33.640Z,42.50
2017-04-29T18:50:02.845Z,45.60
2017-04-29T18:52:32.113Z,46.90
2017-04-29T18:55:01.679Z,44.60
2017-04-29T18:57:30.880Z,45.50
2017-04-29T19:00:00.036Z,51.80
2017-04-29T19:02:29.201Z,51.50
2017-04-29T19:04:58.453Z,48.10
2017-04-29T19:07:27.632Z,49.40
2017-04-29T19:09:56.456Z,50.20
2017-04-29T19:12:25.711Z,50.10
2017-04-29T19:14:54.898Z,51.90
2017-04-29T19:17:24.828Z,52.40
2017-04-29T19:19:54.176Z,54.40
2017-04-29T19:22:23.342Z,54.10
2017-04-29T19:24:52.546Z,54.20
2017-04-29T19:27:21.705Z,54.40
2017-04-29T19:29:51.681Z,56.30
2017-04-29T19:32:20.868Z,57.20
2017-04-29T19:34:50.034Z,55.80
2017-04-29T19:37:19.953Z,55.90
2017-04-29T19:39:49.894Z,56.90
2017-04-29T19:42:18.765Z,57.40
2017-04-29T19:44:47.602Z,58.40
2017-04-29T19:47:16.841Z,58.20
2017-04-29T19:49:46.758Z,58.20
2017-04-29T19:52:16.698Z,58.60
2017-04-29T19:54:45.865Z,58.60
2017-04-29T19:57:15.776Z,58.60
2017-04-29T19:59:44.969Z,59.10
2017-04-29T20:02:14.752Z,59.30
2017-04-29T20:04:47.274Z,61.80
2017-04-29T20:07:19.352Z,60.60
2017-04-29T20:09:49.589Z,59.80
2017-04-29T20:12:19.096Z,60.80
2017-04-29T20:14:48.659Z,61.30
2017-04-29T20:17:18.597Z,62.80
2017-04-29T20:19:48.185Z,61.00
2017-04-29T20:22:17.346Z,62.50
2017-04-29T20:24:46.510Z,62.50
2017-04-29T20:27:16.105Z,62.90
2017-04-29T20:29:46.013Z,64.00
2017-04-29T20:32:15.954Z,65.90
2017-04-29T20:34:44.785Z,65.60
2017-04-29T20:37:14.397Z,66.10
2017-04-29T20:39:43.600Z,67.10
2017-04-29T20:42:12.111Z,66.50
2017-04-29T20:44:41.670Z,66.70
2017-04-29T20:47:10.864Z,67.70
2017-04-29T20:49:40.021Z,66.70
2017-04-29T20:52:09.940Z,66.90
2017-04-29T20:54:39.878Z,65.70
2017-04-29T20:57:09.045Z,65.10
2017-04-29T20:59:38.213Z,65.40
2017-04-29T21:02:07.413Z,63.80
2017-04-29T21:04:36.577Z,62.90
2017-04-29T21:07:05.395Z,65.30
2017-04-29T21:09:34.585Z,64.50
2017-04-29T21:12:03.754Z,64.60
2017-04-29T21:14:33.396Z,65.80
2017-04-29T21:17:02.594Z,68.20
2017-04-29T21:19:31.763Z,66.90
2017-04-29T21:22:00.937Z,68.60
2017-04-29T21:24:30.877Z,67.70
2017-04-29T21:27:00.056Z,68.80
2017-04-29T21:29:29.984Z,69.20
2017-04-29T21:31:59.928Z,68.40
2017-04-29T21:34:29.097Z,70.60
2017-04-29T21:36:58.270Z,71.30
2017-04-29T21:39:27.466Z,71.50
2017-04-29T21:41:56.949Z,71.50
2017-04-29T21:44:26.117Z,70.00
2017-04-29T21:46:55.337Z,69.20
2017-04-29T21:49:24.510Z,69.80
2017-04-29T21:51:53.950Z,70.00
2017-04-29T21:54:22.848Z,71.80
2017-04-29T21:56:52.022Z,70.10
2017-04-29T21:59:21.186Z,69.60
2017-04-29T22:01:50.774Z,70.00
2017-04-29T22:04:19.947Z,70.60
2017-04-29T22:06:49.108Z,72.20
2017-04-29T22:09:18.306Z,69.90
2017-04-29T22:11:47.484Z,72.20
2017-04-29T22:14:17.411Z,72.00
2017-04-29T22:16:46.270Z,73.60
2017-04-29T22:19:16.181Z,74.30
2017-04-29T22:21:44.664Z,73.00
2017-04-29T22:24:13.866Z,75.40
2017-04-29T22:26:43.029Z,75.60
2017-04-29T22:29:12.200Z,75.70
2017-04-29T22:31:41.408Z,75.20
2017-04-29T22:34:10.578Z,76.10
2017-04-29T22:36:40.133Z,75.70
2017-04-29T22:39:09.349Z,75.30
2017-04-29T22:41:38.519Z,73.80
2017-04-29T22:44:07.680Z,74.40
2017-04-29T22:46:37.658Z,73.80
2017-04-29T22:49:06.826Z,73.90
2017-04-29T22:51:35.988Z,74.70
2017-04-29T22:54:05.920Z,75.10
2017-04-29T22:56:35.830Z,75.80
2017-04-29T22:59:05.745Z,76.10
2017-04-29T23:01:35.665Z,76.70
2017-04-29T23:04:04.895Z,75.20
2017-04-29T23:06:34.053Z,75.20
2017-04-29T23:09:03.456Z,75.80
2017-04-29T23:11:33.365Z,76.10
2017-04-29T23:14:02.952Z,74.70
2017-04-29T23:16:32.112Z,76.20
2017-04-29T23:19:01.268Z,75.70
2017-04-29T23:21:30.466Z,75.90
2017-04-29T23:23:59.629Z,75.30
2017-04-29T23:26:28.788Z,74.70
2017-04-29T23:28:57.981Z,74.00
2017-04-29T23:31:27.884Z,75.00
2017-04-29T23:33:57.814Z,75.00
2017-04-29T23:36:27.728Z,75.60
2017-04-29T23:38:57.297Z,76.60
2017-04-29T23:41:26.457Z,74.80
2017-04-29T23:43:55.744Z,77.00
2017-04-29T23:46:24.566Z,78.00
2017-04-29T23:48:53.728Z,76.80
2017-04-29T23:51:22.941Z,75.80
2017-04-29T23:53:52.099Z,77.20
2017-04-29T23:56:21.253Z,78.00
2017-04-29T23:58:50.444Z,77.70
